KLRF/LRF METAR and TAF weather

Enter ICAO airport designator
Station Type Date Time Source
KLRF METAR 2022/01/26 19:56 UTC NOAA

KLRF 261956Z AUTO 09005KT 10SM M 02/M13 A3040 RMK AO2 SLP300 T00231135 $


Station Type Date Time Source
KLRF Decoded METAR 2022/01/26 19:56 UTC NOAA

Little Rock Air Force Base, AR, United States (KLRF) 34-55N 092-09W
Jan 26, 2022 - 02:56 PM EST / 2022.01.26 1956 UTC
Wind: from the E (090 degrees) at 6 MPH (5 KT):0
Visibility: 10 mile(s):0
Temperature: 36.1 F (2.3 C)
Dew Point: 7.7 F (-13.5 C)
Relative Humidity: 29%
Pressure (altimeter): 30.4 in. Hg (1029 hPa)
ob: KLRF 261956Z AUTO 09005KT 10SM M 02/M13 A3040 RMK AO2 SLP300 T00231135
cycle: 20

Station Type Date Time Source
KLRF TAF 2022/01/26 15:03 UTC NOAA

TAF KLRF 261500Z 2615/2721 05010G15KT 9999 SKC QNH3040INS
BECMG 2618/2619 VRB06KT 9999 FEW110 QNH3028INS
BECMG 2711/2712 VRB06KT 9999 SCT050 BKN070 QNH3026INS TX08/2621Z TNM02/2615Z

Example: see airport list